sensor_id;sensor_type;location;lat;lon;timestamp;P1;durP1;ratioP1;P2;durP2;ratioP2
37805;SDS011;25082;50.870;0.022;2023-07-13T00:01:43;4.82;;;2.40;;
37805;SDS011;25082;50.870;0.022;2023-07-13T00:04:11;7.15;;;2.45;;
37805;SDS011;25082;50.870;0.022;2023-07-13T00:06:36;7.40;;;2.20;;
37805;SDS011;25082;50.870;0.022;2023-07-13T00:09:02;7.10;;;2.58;;
37805;SDS011;25082;50.870;0.022;2023-07-13T00:11:28;5.85;;;2.55;;
37805;SDS011;25082;50.870;0.022;2023-07-13T00:13:54;7.63;;;2.47;;
37805;SDS011;25082;50.870;0.022;2023-07-13T00:16:20;4.88;;;2.20;;
37805;SDS011;25082;50.870;0.022;2023-07-13T00:18:46;7.40;;;2.28;;
37805;SDS011;25082;50.870;0.022;2023-07-13T00:21:12;6.00;;;2.08;;
37805;SDS011;25082;50.870;0.022;2023-07-13T00:23:40;4.13;;;1.80;;
37805;SDS011;25082;50.870;0.022;2023-07-13T00:26:08;3.97;;;2.08;;
37805;SDS011;25082;50.870;0.022;2023-07-13T00:28:35;6.43;;;2.00;;
37805;SDS011;25082;50.870;0.022;2023-07-13T00:31:01;5.05;;;2.10;;
37805;SDS011;25082;50.870;0.022;2023-07-13T00:33:28;5.35;;;2.10;;
37805;SDS011;25082;50.870;0.022;2023-07-13T00:35:54;3.28;;;1.88;;
37805;SDS011;25082;50.870;0.022;2023-07-13T00:38:21;5.07;;;1.90;;
37805;SDS011;25082;50.870;0.022;2023-07-13T00:40:47;4.32;;;2.10;;
37805;SDS011;25082;50.870;0.022;2023-07-13T00:43:17;7.80;;;2.35;;
37805;SDS011;25082;50.870;0.022;2023-07-13T00:48:13;7.18;;;2.63;;
37805;SDS011;25082;50.870;0.022;2023-07-13T00:50:42;6.38;;;1.80;;
37805;SDS011;25082;50.870;0.022;2023-07-13T00:53:09;9.10;;;2.30;;
37805;SDS011;25082;50.870;0.022;2023-07-13T00:55:36;5.60;;;1.67;;
37805;SDS011;25082;50.870;0.022;2023-07-13T00:58:03;6.60;;;2.20;;
37805;SDS011;25082;50.870;0.022;2023-07-13T01:00:31;4.07;;;1.60;;
37805;SDS011;25082;50.870;0.022;2023-07-13T01:02:59;5.35;;;2.10;;
37805;SDS011;25082;50.870;0.022;2023-07-13T01:05:30;6.07;;;2.10;;
37805;SDS011;25082;50.870;0.022;2023-07-13T01:07:59;8.82;;;2.92;;
37805;SDS011;25082;50.870;0.022;2023-07-13T01:10:27;4.43;;;1.98;;
37805;SDS011;25082;50.870;0.022;2023-07-13T01:12:53;6.05;;;2.45;;
37805;SDS011;25082;50.870;0.022;2023-07-13T01:18:15;4.85;;;1.90;;
37805;SDS011;25082;50.870;0.022;2023-07-13T01:21:03;2.83;;;1.65;;
37805;SDS011;25082;50.870;0.022;2023-07-13T01:23:30;6.55;;;2.20;;
37805;SDS011;25082;50.870;0.022;2023-07-13T01:25:57;6.57;;;2.10;;
37805;SDS011;25082;50.870;0.022;2023-07-13T01:28:24;7.03;;;2.30;;
37805;SDS011;25082;50.870;0.022;2023-07-13T01:30:52;5.63;;;2.10;;
37805;SDS011;25082;50.870;0.022;2023-07-13T01:33:19;2.63;;;1.65;;
37805;SDS011;25082;50.870;0.022;2023-07-13T01:35:46;4.38;;;1.75;;
37805;SDS011;25082;50.870;0.022;2023-07-13T01:38:14;4.38;;;2.08;;
37805;SDS011;25082;50.870;0.022;2023-07-13T01:40:42;5.85;;;1.80;;
37805;SDS011;25082;50.870;0.022;2023-07-13T01:43:08;6.18;;;1.88;;
37805;SDS011;25082;50.870;0.022;2023-07-13T01:45:34;4.47;;;2.15;;
37805;SDS011;25082;50.870;0.022;2023-07-13T01:48:00;6.43;;;2.35;;
37805;SDS011;25082;50.870;0.022;2023-07-13T01:50:26;5.85;;;1.90;;
37805;SDS011;25082;50.870;0.022;2023-07-13T01:52:52;4.97;;;1.92;;
37805;SDS011;25082;50.870;0.022;2023-07-13T01:55:18;4.43;;;2.10;;
37805;SDS011;25082;50.870;0.022;2023-07-13T01:57:45;5.05;;;1.88;;
37805;SDS011;25082;50.870;0.022;2023-07-13T02:00:12;7.28;;;2.33;;
37805;SDS011;25082;50.870;0.022;2023-07-13T02:02:38;5.32;;;2.50;;
37805;SDS011;25082;50.870;0.022;2023-07-13T02:05:05;3.42;;;1.77;;
37805;SDS011;25082;50.870;0.022;2023-07-13T02:07:31;5.03;;;1.73;;
37805;SDS011;25082;50.870;0.022;2023-07-13T02:09:57;6.93;;;1.95;;
37805;SDS011;25082;50.870;0.022;2023-07-13T02:12:23;4.85;;;2.17;;
37805;SDS011;25082;50.870;0.022;2023-07-13T02:14:49;4.65;;;2.00;;
37805;SDS011;25082;50.870;0.022;2023-07-13T02:17:15;5.60;;;1.80;;
37805;SDS011;25082;50.870;0.022;2023-07-13T02:19:40;4.70;;;2.28;;
37805;SDS011;25082;50.870;0.022;2023-07-13T02:22:06;6.05;;;1.67;;
37805;SDS011;25082;50.870;0.022;2023-07-13T02:24:32;4.55;;;2.15;;
37805;SDS011;25082;50.870;0.022;2023-07-13T02:26:58;4.70;;;2.10;;
37805;SDS011;25082;50.870;0.022;2023-07-13T02:29:23;4.20;;;2.08;;
37805;SDS011;25082;50.870;0.022;2023-07-13T02:31:49;3.92;;;1.67;;
37805;SDS011;25082;50.870;0.022;2023-07-13T02:34:15;4.63;;;2.30;;
37805;SDS011;25082;50.870;0.022;2023-07-13T02:36:41;5.43;;;2.10;;
37805;SDS011;25082;50.870;0.022;2023-07-13T02:39:06;7.18;;;2.03;;
37805;SDS011;25082;50.870;0.022;2023-07-13T02:41:32;8.07;;;2.25;;
37805;SDS011;25082;50.870;0.022;2023-07-13T02:43:58;4.60;;;2.03;;
37805;SDS011;25082;50.870;0.022;2023-07-13T02:46:32;4.13;;;2.05;;
37805;SDS011;25082;50.870;0.022;2023-07-13T02:48:59;4.63;;;2.08;;
37805;SDS011;25082;50.870;0.022;2023-07-13T02:51:25;4.03;;;1.67;;
37805;SDS011;25082;50.870;0.022;2023-07-13T02:53:51;3.47;;;2.03;;
37805;SDS011;25082;50.870;0.022;2023-07-13T02:56:17;5.25;;;1.85;;
37805;SDS011;25082;50.870;0.022;2023-07-13T02:58:48;4.90;;;1.60;;
37805;SDS011;25082;50.870;0.022;2023-07-13T03:01:13;4.50;;;2.08;;
37805;SDS011;25082;50.870;0.022;2023-07-13T03:03:43;6.68;;;2.30;;
37805;SDS011;25082;50.870;0.022;2023-07-13T03:06:10;2.50;;;1.48;;
37805;SDS011;25082;50.870;0.022;2023-07-13T03:08:37;4.68;;;2.00;;
37805;SDS011;25082;50.870;0.022;2023-07-13T03:11:04;2.42;;;1.60;;
37805;SDS011;25082;50.870;0.022;2023-07-13T03:13:36;5.28;;;1.77;;
37805;SDS011;25082;50.870;0.022;2023-07-13T03:16:02;5.28;;;1.85;;
37805;SDS011;25082;50.870;0.022;2023-07-13T03:18:28;3.95;;;1.63;;
37805;SDS011;25082;50.870;0.022;2023-07-13T03:20:54;3.80;;;1.45;;
37805;SDS011;25082;50.870;0.022;2023-07-13T03:23:20;3.63;;;1.70;;
37805;SDS011;25082;50.870;0.022;2023-07-13T03:25:47;3.90;;;1.60;;
37805;SDS011;25082;50.870;0.022;2023-07-13T03:28:13;3.15;;;1.33;;
37805;SDS011;25082;50.870;0.022;2023-07-13T03:30:40;3.70;;;1.75;;
37805;SDS011;25082;50.870;0.022;2023-07-13T03:33:06;3.58;;;2.03;;
37805;SDS011;25082;50.870;0.022;2023-07-13T03:35:33;3.60;;;1.50;;
37805;SDS011;25082;50.870;0.022;2023-07-13T03:38:00;4.50;;;1.88;;
37805;SDS011;25082;50.870;0.022;2023-07-13T03:40:28;4.82;;;1.90;;
37805;SDS011;25082;50.870;0.022;2023-07-13T03:42:54;3.00;;;1.45;;
37805;SDS011;25082;50.870;0.022;2023-07-13T03:45:20;4.40;;;1.67;;
37805;SDS011;25082;50.870;0.022;2023-07-13T03:47:45;3.90;;;1.80;;
37805;SDS011;25082;50.870;0.022;2023-07-13T03:50:11;4.00;;;1.60;;
37805;SDS011;25082;50.870;0.022;2023-07-13T03:52:37;3.55;;;1.70;;
37805;SDS011;25082;50.870;0.022;2023-07-13T03:55:03;2.75;;;1.55;;
37805;SDS011;25082;50.870;0.022;2023-07-13T03:57:29;4.45;;;1.63;;
37805;SDS011;25082;50.870;0.022;2023-07-13T03:59:55;7.07;;;2.05;;
37805;SDS011;25082;50.870;0.022;2023-07-13T04:02:21;4.40;;;1.45;;
37805;SDS011;25082;50.870;0.022;2023-07-13T04:04:47;4.47;;;1.45;;
37805;SDS011;25082;50.870;0.022;2023-07-13T04:07:12;3.58;;;1.50;;
37805;SDS011;25082;50.870;0.022;2023-07-13T04:09:38;3.88;;;1.83;;
37805;SDS011;25082;50.870;0.022;2023-07-13T04:12:04;3.90;;;1.42;;
37805;SDS011;25082;50.870;0.022;2023-07-13T04:14:30;4.53;;;1.85;;
37805;SDS011;25082;50.870;0.022;2023-07-13T04:16:56;3.97;;;1.80;;
37805;SDS011;25082;50.870;0.022;2023-07-13T04:19:22;2.95;;;1.23;;
37805;SDS011;25082;50.870;0.022;2023-07-13T04:21:51;4.35;;;1.83;;
37805;SDS011;25082;50.870;0.022;2023-07-13T04:24:17;4.15;;;1.92;;
37805;SDS011;25082;50.870;0.022;2023-07-13T04:26:42;3.03;;;1.67;;
37805;SDS011;25082;50.870;0.022;2023-07-13T04:29:09;3.47;;;1.67;;
37805;SDS011;25082;50.870;0.022;2023-07-13T04:31:34;2.30;;;1.40;;
37805;SDS011;25082;50.870;0.022;2023-07-13T04:34:00;3.28;;;1.88;;
37805;SDS011;25082;50.870;0.022;2023-07-13T04:36:26;3.03;;;1.45;;
37805;SDS011;25082;50.870;0.022;2023-07-13T04:38:52;3.10;;;1.10;;
37805;SDS011;25082;50.870;0.022;2023-07-13T04:41:19;3.90;;;1.65;;
37805;SDS011;25082;50.870;0.022;2023-07-13T04:43:45;4.90;;;1.60;;
37805;SDS011;25082;50.870;0.022;2023-07-13T04:46:12;2.60;;;1.52;;
37805;SDS011;25082;50.870;0.022;2023-07-13T04:48:39;3.03;;;1.67;;
37805;SDS011;25082;50.870;0.022;2023-07-13T04:51:05;2.80;;;1.48;;
37805;SDS011;25082;50.870;0.022;2023-07-13T04:53:32;2.03;;;1.52;;
37805;SDS011;25082;50.870;0.022;2023-07-13T04:55:59;3.53;;;1.73;;
37805;SDS011;25082;50.870;0.022;2023-07-13T04:58:27;3.22;;;1.38;;
37805;SDS011;25082;50.870;0.022;2023-07-13T05:00:58;3.80;;;1.83;;
37805;SDS011;25082;50.870;0.022;2023-07-13T05:03:25;4.20;;;1.70;;
37805;SDS011;25082;50.870;0.022;2023-07-13T05:05:57;8.05;;;1.80;;
37805;SDS011;25082;50.870;0.022;2023-07-13T05:08:26;5.32;;;1.42;;
37805;SDS011;25082;50.870;0.022;2023-07-13T05:10:52;2.63;;;1.20;;
37805;SDS011;25082;50.870;0.022;2023-07-13T05:13:18;2.13;;;1.23;;
37805;SDS011;25082;50.870;0.022;2023-07-13T05:15:45;3.40;;;1.40;;
37805;SDS011;25082;50.870;0.022;2023-07-13T05:18:11;3.28;;;1.92;;
37805;SDS011;25082;50.870;0.022;2023-07-13T05:20:36;3.13;;;1.67;;
37805;SDS011;25082;50.870;0.022;2023-07-13T05:23:02;3.92;;;1.13;;
37805;SDS011;25082;50.870;0.022;2023-07-13T05:25:28;3.03;;;1.70;;
37805;SDS011;25082;50.870;0.022;2023-07-13T05:27:53;4.38;;;1.38;;
37805;SDS011;25082;50.870;0.022;2023-07-13T05:30:19;3.67;;;1.55;;
37805;SDS011;25082;50.870;0.022;2023-07-13T05:32:45;2.85;;;1.60;;
37805;SDS011;25082;50.870;0.022;2023-07-13T05:35:11;2.30;;;1.35;;
37805;SDS011;25082;50.870;0.022;2023-07-13T05:37:37;4.28;;;1.40;;
37805;SDS011;25082;50.870;0.022;2023-07-13T05:40:02;2.30;;;1.27;;
37805;SDS011;25082;50.870;0.022;2023-07-13T05:42:29;4.25;;;1.67;;
37805;SDS011;25082;50.870;0.022;2023-07-13T05:44:56;2.80;;;1.33;;
37805;SDS011;25082;50.870;0.022;2023-07-13T05:47:22;3.50;;;1.65;;
37805;SDS011;25082;50.870;0.022;2023-07-13T05:49:48;3.50;;;1.20;;
37805;SDS011;25082;50.870;0.022;2023-07-13T05:52:14;2.08;;;1.10;;
37805;SDS011;25082;50.870;0.022;2023-07-13T05:54:39;3.20;;;1.30;;
37805;SDS011;25082;50.870;0.022;2023-07-13T05:57:05;3.58;;;1.70;;
37805;SDS011;25082;50.870;0.022;2023-07-13T05:59:31;2.88;;;1.38;;
37805;SDS011;25082;50.870;0.022;2023-07-13T06:01:57;1.58;;;1.35;;
37805;SDS011;25082;50.870;0.022;2023-07-13T06:04:22;2.90;;;1.33;;
37805;SDS011;25082;50.870;0.022;2023-07-13T06:06:48;3.70;;;1.50;;
37805;SDS011;25082;50.870;0.022;2023-07-13T06:09:14;5.63;;;1.30;;
37805;SDS011;25082;50.870;0.022;2023-07-13T06:11:40;3.03;;;1.38;;
37805;SDS011;25082;50.870;0.022;2023-07-13T06:14:05;1.95;;;1.25;;
37805;SDS011;25082;50.870;0.022;2023-07-13T06:16:31;3.17;;;1.38;;
37805;SDS011;25082;50.870;0.022;2023-07-13T06:18:57;2.95;;;1.50;;
37805;SDS011;25082;50.870;0.022;2023-07-13T06:21:23;4.95;;;1.67;;
37805;SDS011;25082;50.870;0.022;2023-07-13T06:23:49;3.17;;;1.52;;
37805;SDS011;25082;50.870;0.022;2023-07-13T06:26:16;2.45;;;1.30;;
37805;SDS011;25082;50.870;0.022;2023-07-13T06:28:43;3.80;;;1.65;;
37805;SDS011;25082;50.870;0.022;2023-07-13T06:31:10;3.05;;;1.40;;
37805;SDS011;25082;50.870;0.022;2023-07-13T06:33:37;1.80;;;1.02;;
37805;SDS011;25082;50.870;0.022;2023-07-13T06:36:04;2.38;;;1.40;;
37805;SDS011;25082;50.870;0.022;2023-07-13T06:38:31;2.15;;;1.25;;
37805;SDS011;25082;50.870;0.022;2023-07-13T06:40:57;4.05;;;1.42;;
37805;SDS011;25082;50.870;0.022;2023-07-13T06:43:23;2.13;;;1.33;;
37805;SDS011;25082;50.870;0.022;2023-07-13T06:45:50;3.65;;;1.58;;
37805;SDS011;25082;50.870;0.022;2023-07-13T06:48:17;4.07;;;1.92;;
37805;SDS011;25082;50.870;0.022;2023-07-13T06:50:44;2.30;;;1.58;;
37805;SDS011;25082;50.870;0.022;2023-07-13T06:53:11;2.90;;;1.45;;
37805;SDS011;25082;50.870;0.022;2023-07-13T06:55:38;2.20;;;1.20;;
37805;SDS011;25082;50.870;0.022;2023-07-13T06:58:04;4.70;;;1.48;;
37805;SDS011;25082;50.870;0.022;2023-07-13T07:00:30;2.30;;;1.33;;
37805;SDS011;25082;50.870;0.022;2023-07-13T07:02:56;1.55;;;1.10;;
37805;SDS011;25082;50.870;0.022;2023-07-13T07:05:21;2.47;;;1.40;;
37805;SDS011;25082;50.870;0.022;2023-07-13T07:07:49;3.03;;;1.40;;
37805;SDS011;25082;50.870;0.022;2023-07-13T07:10:15;4.25;;;1.23;;
37805;SDS011;25082;50.870;0.022;2023-07-13T07:12:41;4.50;;;1.60;;
37805;SDS011;25082;50.870;0.022;2023-07-13T07:15:07;3.05;;;1.30;;
37805;SDS011;25082;50.870;0.022;2023-07-13T07:17:33;2.33;;;1.45;;
37805;SDS011;25082;50.870;0.022;2023-07-13T07:19:59;3.28;;;1.95;;
37805;SDS011;25082;50.870;0.022;2023-07-13T07:22:25;3.10;;;1.25;;
37805;SDS011;25082;50.870;0.022;2023-07-13T07:24:52;4.18;;;1.38;;
37805;SDS011;25082;50.870;0.022;2023-07-13T07:27:18;3.58;;;1.30;;
37805;SDS011;25082;50.870;0.022;2023-07-13T07:29:44;1.95;;;1.17;;
37805;SDS011;25082;50.870;0.022;2023-07-13T07:32:10;3.38;;;1.15;;
37805;SDS011;25082;50.870;0.022;2023-07-13T07:34:36;4.28;;;1.63;;
37805;SDS011;25082;50.870;0.022;2023-07-13T07:37:02;2.80;;;1.48;;
37805;SDS011;25082;50.870;0.022;2023-07-13T07:39:28;3.50;;;1.50;;
37805;SDS011;25082;50.870;0.022;2023-07-13T07:41:54;2.50;;;1.40;;
37805;SDS011;25082;50.870;0.022;2023-07-13T07:44:20;3.38;;;1.27;;
37805;SDS011;25082;50.870;0.022;2023-07-13T07:46:47;3.85;;;1.60;;
37805;SDS011;25082;50.870;0.022;2023-07-13T07:49:12;3.85;;;1.63;;
37805;SDS011;25082;50.870;0.022;2023-07-13T07:51:38;3.65;;;1.45;;
37805;SDS011;25082;50.870;0.022;2023-07-13T07:54:04;11.63;;;2.20;;
37805;SDS011;25082;50.870;0.022;2023-07-13T07:56:31;9.82;;;1.92;;
37805;SDS011;25082;50.870;0.022;2023-07-13T07:58:56;11.85;;;2.15;;
37805;SDS011;25082;50.870;0.022;2023-07-13T08:01:22;5.05;;;1.80;;
37805;SDS011;25082;50.870;0.022;2023-07-13T08:03:48;8.50;;;1.90;;
37805;SDS011;25082;50.870;0.022;2023-07-13T08:06:14;8.80;;;1.75;;
37805;SDS011;25082;50.870;0.022;2023-07-13T08:08:40;5.32;;;1.77;;
37805;SDS011;25082;50.870;0.022;2023-07-13T08:11:06;3.90;;;1.88;;
37805;SDS011;25082;50.870;0.022;2023-07-13T08:13:33;9.20;;;2.38;;
37805;SDS011;25082;50.870;0.022;2023-07-13T08:16:00;4.47;;;1.70;;
37805;SDS011;25082;50.870;0.022;2023-07-13T08:18:26;6.43;;;1.90;;
37805;SDS011;25082;50.870;0.022;2023-07-13T08:20:53;4.47;;;2.08;;
37805;SDS011;25082;50.870;0.022;2023-07-13T08:23:21;5.43;;;2.08;;
37805;SDS011;25082;50.870;0.022;2023-07-13T08:25:53;4.78;;;2.17;;
37805;SDS011;25082;50.870;0.022;2023-07-13T08:28:20;7.03;;;1.77;;
37805;SDS011;25082;50.870;0.022;2023-07-13T08:30:46;5.72;;;1.85;;
37805;SDS011;25082;50.870;0.022;2023-07-13T08:33:16;5.93;;;2.15;;
37805;SDS011;25082;50.870;0.022;2023-07-13T08:35:49;6.00;;;1.80;;
37805;SDS011;25082;50.870;0.022;2023-07-13T08:38:15;3.67;;;1.70;;
37805;SDS011;25082;50.870;0.022;2023-07-13T08:40:42;9.10;;;2.50;;
37805;SDS011;25082;50.870;0.022;2023-07-13T08:43:09;9.00;;;2.65;;
37805;SDS011;25082;50.870;0.022;2023-07-13T08:45:47;6.60;;;2.20;;
37805;SDS011;25082;50.870;0.022;2023-07-13T08:48:27;11.27;;;2.88;;
37805;SDS011;25082;50.870;0.022;2023-07-13T08:51:02;6.22;;;2.25;;
37805;SDS011;25082;50.870;0.022;2023-07-13T08:53:40;7.07;;;1.73;;
37805;SDS011;25082;50.870;0.022;2023-07-13T08:56:19;8.02;;;2.38;;
37805;SDS011;25082;50.870;0.022;2023-07-13T08:58:51;6.03;;;1.77;;
37805;SDS011;25082;50.870;0.022;2023-07-13T09:04:34;8.30;;;2.35;;
37805;SDS011;25082;50.870;0.022;2023-07-13T09:10:07;14.77;;;2.40;;
37805;SDS011;25082;50.870;0.022;2023-07-13T09:15:25;6.07;;;1.48;;
37805;SDS011;25082;50.870;0.022;2023-07-13T09:21:14;7.95;;;2.47;;
37805;SDS011;25082;50.870;0.022;2023-07-13T09:23:54;13.45;;;2.42;;
37805;SDS011;25082;50.870;0.022;2023-07-13T09:26:46;6.63;;;1.90;;
37805;SDS011;25082;50.870;0.022;2023-07-13T09:29:15;9.43;;;2.35;;
37805;SDS011;25082;50.870;0.022;2023-07-13T09:31:53;9.65;;;2.17;;
37805;SDS011;25082;50.870;0.022;2023-07-13T09:34:23;12.82;;;2.45;;
37805;SDS011;25082;50.870;0.022;2023-07-13T09:36:50;6.43;;;2.30;;
37805;SDS011;25082;50.870;0.022;2023-07-13T09:39:33;5.97;;;2.35;;
37805;SDS011;25082;50.870;0.022;2023-07-13T09:42:17;14.68;;;2.45;;
37805;SDS011;25082;50.870;0.022;2023-07-13T09:44:56;5.22;;;1.90;;
37805;SDS011;25082;50.870;0.022;2023-07-13T09:47:37;5.82;;;2.50;;
37805;SDS011;25082;50.870;0.022;2023-07-13T09:50:06;8.88;;;2.53;;
37805;SDS011;25082;50.870;0.022;2023-07-13T09:52:45;6.78;;;2.30;;
37805;SDS011;25082;50.870;0.022;2023-07-13T09:55:24;9.57;;;2.13;;
37805;SDS011;25082;50.870;0.022;2023-07-13T09:58:08;6.47;;;2.25;;
37805;SDS011;25082;50.870;0.022;2023-07-13T10:00:38;6.05;;;1.80;;
37805;SDS011;25082;50.870;0.022;2023-07-13T10:03:19;6.10;;;1.73;;
37805;SDS011;25082;50.870;0.022;2023-07-13T10:05:48;7.88;;;1.85;;
37805;SDS011;25082;50.870;0.022;2023-07-13T10:08:21;54.58;;;5.38;;
37805;SDS011;25082;50.870;0.022;2023-07-13T10:11:34;63.45;;;6.30;;
37805;SDS011;25082;50.870;0.022;2023-07-13T10:13:42;35.35;;;4.90;;
37805;SDS011;25082;50.870;0.022;2023-07-13T10:21:20;11.75;;;2.42;;
37805;SDS011;25082;50.870;0.022;2023-07-13T10:23:55;8.57;;;2.05;;
37805;SDS011;25082;50.870;0.022;2023-07-13T10:29:01;10.85;;;2.15;;
37805;SDS011;25082;50.870;0.022;2023-07-13T10:31:32;4.05;;;1.75;;
37805;SDS011;25082;50.870;0.022;2023-07-13T10:33:59;4.47;;;1.48;;
37805;SDS011;25082;50.870;0.022;2023-07-13T10:36:38;9.18;;;2.38;;
37805;SDS011;25082;50.870;0.022;2023-07-13T10:39:04;12.82;;;3.67;;
37805;SDS011;25082;50.870;0.022;2023-07-13T10:41:32;22.60;;;7.97;;
37805;SDS011;25082;50.870;0.022;2023-07-13T10:44:02;45.63;;;17.45;;
37805;SDS011;25082;50.870;0.022;2023-07-13T10:46:35;63.80;;;27.65;;
37805;SDS011;25082;50.870;0.022;2023-07-13T10:49:01;74.40;;;31.15;;
37805;SDS011;25082;50.870;0.022;2023-07-13T10:51:30;79.60;;;31.58;;
37805;SDS011;25082;50.870;0.022;2023-07-13T10:54:19;80.82;;;30.02;;
37805;SDS011;25082;50.870;0.022;2023-07-13T10:59:48;40.80;;;15.85;;
37805;SDS011;25082;50.870;0.022;2023-07-13T11:02:34;31.92;;;13.20;;
37805;SDS011;25082;50.870;0.022;2023-07-13T11:05:01;28.63;;;11.52;;
37805;SDS011;25082;50.870;0.022;2023-07-13T11:16:01;12.10;;;4.45;;
37805;SDS011;25082;50.870;0.022;2023-07-13T11:18:47;14.07;;;4.60;;
37805;SDS011;25082;50.870;0.022;2023-07-13T11:21:33;11.65;;;3.78;;
37805;SDS011;25082;50.870;0.022;2023-07-13T11:26:43;15.00;;;4.35;;
37805;SDS011;25082;50.870;0.022;2023-07-13T11:31:57;9.35;;;3.00;;
37805;SDS011;25082;50.870;0.022;2023-07-13T11:34:29;10.73;;;2.83;;
37805;SDS011;25082;50.870;0.022;2023-07-13T11:37:01;7.85;;;3.05;;
37805;SDS011;25082;50.870;0.022;2023-07-13T11:39:31;14.13;;;3.58;;
37805;SDS011;25082;50.870;0.022;2023-07-13T11:42:03;9.30;;;2.85;;
37805;SDS011;25082;50.870;0.022;2023-07-13T11:44:41;4.78;;;2.55;;
37805;SDS011;25082;50.870;0.022;2023-07-13T11:47:14;7.55;;;2.20;;
37805;SDS011;25082;50.870;0.022;2023-07-13T11:49:43;8.45;;;2.85;;
37805;SDS011;25082;50.870;0.022;2023-07-13T11:52:18;5.78;;;2.15;;
37805;SDS011;25082;50.870;0.022;2023-07-13T11:54:50;10.45;;;2.40;;
37805;SDS011;25082;50.870;0.022;2023-07-13T11:57:33;7.22;;;2.45;;
37805;SDS011;25082;50.870;0.022;2023-07-13T12:00:09;6.78;;;2.00;;
37805;SDS011;25082;50.870;0.022;2023-07-13T12:02:40;6.07;;;2.63;;
37805;SDS011;25082;50.870;0.022;2023-07-13T12:05:11;7.07;;;2.65;;
37805;SDS011;25082;50.870;0.022;2023-07-13T12:07:39;5.05;;;2.42;;
37805;SDS011;25082;50.870;0.022;2023-07-13T12:12:34;10.43;;;3.53;;
37805;SDS011;25082;50.870;0.022;2023-07-13T12:15:05;12.70;;;2.72;;
37805;SDS011;25082;50.870;0.022;2023-07-13T12:17:31;7.72;;;2.65;;
37805;SDS011;25082;50.870;0.022;2023-07-13T12:19:59;9.15;;;2.85;;
37805;SDS011;25082;50.870;0.022;2023-07-13T12:22:25;6.07;;;2.67;;
37805;SDS011;25082;50.870;0.022;2023-07-13T12:24:50;10.20;;;2.53;;
37805;SDS011;25082;50.870;0.022;2023-07-13T12:27:22;7.47;;;2.60;;
37805;SDS011;25082;50.870;0.022;2023-07-13T12:30:03;9.45;;;3.33;;
37805;SDS011;25082;50.870;0.022;2023-07-13T12:32:31;8.40;;;3.22;;
37805;SDS011;25082;50.870;0.022;2023-07-13T12:35:18;11.32;;;2.97;;
37805;SDS011;25082;50.870;0.022;2023-07-13T12:37:44;7.45;;;2.80;;
37805;SDS011;25082;50.870;0.022;2023-07-13T12:40:19;11.13;;;2.88;;
37805;SDS011;25082;50.870;0.022;2023-07-13T12:42:47;8.18;;;3.10;;
37805;SDS011;25082;50.870;0.022;2023-07-13T12:45:19;8.50;;;2.75;;
37805;SDS011;25082;50.870;0.022;2023-07-13T12:47:57;7.70;;;3.05;;
37805;SDS011;25082;50.870;0.022;2023-07-13T12:50:28;10.98;;;3.05;;
37805;SDS011;25082;50.870;0.022;2023-07-13T12:53:02;9.18;;;2.88;;
37805;SDS011;25082;50.870;0.022;2023-07-13T12:55:37;7.10;;;2.45;;
37805;SDS011;25082;50.870;0.022;2023-07-13T12:58:09;7.72;;;2.75;;
37805;SDS011;25082;50.870;0.022;2023-07-13T13:00:51;8.07;;;2.40;;
37805;SDS011;25082;50.870;0.022;2023-07-13T13:06:01;7.43;;;2.05;;
37805;SDS011;25082;50.870;0.022;2023-07-13T13:08:35;8.57;;;2.72;;
37805;SDS011;25082;50.870;0.022;2023-07-13T13:11:02;13.85;;;3.20;;
37805;SDS011;25082;50.870;0.022;2023-07-13T13:13:28;11.45;;;2.92;;
37805;SDS011;25082;50.870;0.022;2023-07-13T13:15:54;9.73;;;2.90;;
37805;SDS011;25082;50.870;0.022;2023-07-13T13:18:20;7.80;;;3.17;;
37805;SDS011;25082;50.870;0.022;2023-07-13T13:20:49;13.52;;;3.30;;
37805;SDS011;25082;50.870;0.022;2023-07-13T13:23:17;10.23;;;3.70;;
37805;SDS011;25082;50.870;0.022;2023-07-13T13:25:49;8.80;;;2.80;;
37805;SDS011;25082;50.870;0.022;2023-07-13T13:28:19;6.72;;;2.45;;
37805;SDS011;25082;50.870;0.022;2023-07-13T13:30:46;6.25;;;3.13;;
37805;SDS011;25082;50.870;0.022;2023-07-13T13:33:16;10.45;;;3.05;;
37805;SDS011;25082;50.870;0.022;2023-07-13T13:35:44;12.40;;;3.13;;
37805;SDS011;25082;50.870;0.022;2023-07-13T13:38:20;8.82;;;2.72;;
37805;SDS011;25082;50.870;0.022;2023-07-13T13:40:50;7.25;;;2.88;;
37805;SDS011;25082;50.870;0.022;2023-07-13T13:43:21;8.48;;;3.17;;
37805;SDS011;25082;50.870;0.022;2023-07-13T13:45:51;7.55;;;2.80;;
37805;SDS011;25082;50.870;0.022;2023-07-13T13:48:20;4.93;;;2.40;;
37805;SDS011;25082;50.870;0.022;2023-07-13T13:50:55;7.22;;;3.08;;
37805;SDS011;25082;50.870;0.022;2023-07-13T13:53:22;9.52;;;3.17;;
37805;SDS011;25082;50.870;0.022;2023-07-13T13:55:51;7.78;;;3.00;;
37805;SDS011;25082;50.870;0.022;2023-07-13T13:58:20;9.05;;;3.03;;
37805;SDS011;25082;50.870;0.022;2023-07-13T14:00:47;8.38;;;3.10;;
37805;SDS011;25082;50.870;0.022;2023-07-13T14:03:20;12.85;;;3.25;;
37805;SDS011;25082;50.870;0.022;2023-07-13T14:05:47;11.70;;;3.92;;
37805;SDS011;25082;50.870;0.022;2023-07-13T14:08:15;15.30;;;3.78;;
37805;SDS011;25082;50.870;0.022;2023-07-13T14:10:46;10.48;;;3.45;;
37805;SDS011;25082;50.870;0.022;2023-07-13T14:13:19;11.20;;;2.90;;
37805;SDS011;25082;50.870;0.022;2023-07-13T14:16:17;10.55;;;3.45;;
37805;SDS011;25082;50.870;0.022;2023-07-13T14:18:45;11.45;;;3.17;;
37805;SDS011;25082;50.870;0.022;2023-07-13T14:21:13;9.75;;;2.80;;
37805;SDS011;25082;50.870;0.022;2023-07-13T14:23:43;6.15;;;2.58;;
37805;SDS011;25082;50.870;0.022;2023-07-13T14:26:14;8.38;;;2.60;;
37805;SDS011;25082;50.870;0.022;2023-07-13T14:31:10;9.35;;;2.85;;
37805;SDS011;25082;50.870;0.022;2023-07-13T14:33:37;9.75;;;2.80;;
37805;SDS011;25082;50.870;0.022;2023-07-13T14:36:16;6.60;;;2.85;;
37805;SDS011;25082;50.870;0.022;2023-07-13T14:38:49;7.60;;;2.30;;
37805;SDS011;25082;50.870;0.022;2023-07-13T14:41:15;7.18;;;2.20;;
37805;SDS011;25082;50.870;0.022;2023-07-13T14:43:41;6.50;;;1.95;;
37805;SDS011;25082;50.870;0.022;2023-07-13T14:46:07;6.28;;;2.05;;
37805;SDS011;25082;50.870;0.022;2023-07-13T14:48:59;5.13;;;1.90;;
37805;SDS011;25082;50.870;0.022;2023-07-13T14:51:29;6.00;;;2.25;;
37805;SDS011;25082;50.870;0.022;2023-07-13T14:53:55;6.22;;;1.95;;
37805;SDS011;25082;50.870;0.022;2023-07-13T14:56:22;7.40;;;2.38;;
37805;SDS011;25082;50.870;0.022;2023-07-13T14:58:47;4.78;;;2.13;;
37805;SDS011;25082;50.870;0.022;2023-07-13T15:01:14;10.07;;;2.75;;
37805;SDS011;25082;50.870;0.022;2023-07-13T15:03:43;8.98;;;2.65;;
37805;SDS011;25082;50.870;0.022;2023-07-13T15:06:11;9.00;;;3.03;;
37805;SDS011;25082;50.870;0.022;2023-07-13T15:08:38;4.82;;;2.78;;
37805;SDS011;25082;50.870;0.022;2023-07-13T15:11:06;11.45;;;3.17;;
37805;SDS011;25082;50.870;0.022;2023-07-13T15:13:33;7.50;;;2.50;;
37805;SDS011;25082;50.870;0.022;2023-07-13T15:16:00;9.50;;;2.83;;
37805;SDS011;25082;50.870;0.022;2023-07-13T15:18:26;8.75;;;2.97;;
37805;SDS011;25082;50.870;0.022;2023-07-13T15:20:53;7.88;;;3.08;;
37805;SDS011;25082;50.870;0.022;2023-07-13T15:23:21;10.00;;;2.85;;
37805;SDS011;25082;50.870;0.022;2023-07-13T15:25:51;10.32;;;2.80;;
37805;SDS011;25082;50.870;0.022;2023-07-13T15:28:17;16.15;;;3.10;;
37805;SDS011;25082;50.870;0.022;2023-07-13T15:30:44;8.20;;;2.55;;
37805;SDS011;25082;50.870;0.022;2023-07-13T15:33:14;9.25;;;2.88;;
37805;SDS011;25082;50.870;0.022;2023-07-13T15:35:42;16.42;;;3.50;;
37805;SDS011;25082;50.870;0.022;2023-07-13T15:38:16;10.20;;;3.47;;
37805;SDS011;25082;50.870;0.022;2023-07-13T15:40:43;11.82;;;3.08;;
37805;SDS011;25082;50.870;0.022;2023-07-13T15:43:10;8.80;;;2.78;;
37805;SDS011;25082;50.870;0.022;2023-07-13T15:45:38;6.38;;;2.88;;